createdAt,value
2019-04-01T00:02:14.859Z,62.68
2019-04-01T00:12:20.199Z,63.19
2019-04-01T00:22:25.450Z,63.98
2019-04-01T00:32:30.757Z,65.44
2019-04-01T00:42:37.961Z,69.82
2019-04-01T00:52:43.499Z,70.96
2019-04-01T01:02:48.858Z,71.62
2019-04-01T01:12:54.321Z,72.14
2019-04-01T01:23:00.019Z,72.12
2019-04-01T01:33:05.379Z,71.55
2019-04-01T01:43:10.947Z,74.72
2019-04-01T01:53:16.201Z,73.43
2019-04-01T02:03:21.440Z,74.76
2019-04-01T02:13:26.803Z,75.57
2019-04-01T02:23:31.910Z,75.43
2019-04-01T02:33:37.346Z,78.60
2019-04-01T02:43:42.522Z,78.85
2019-04-01T02:53:47.785Z,76.82
2019-04-01T03:03:53.017Z,77.33
2019-04-01T03:13:58.395Z,78.00
2019-04-01T03:24:03.547Z,76.40
2019-04-01T03:34:08.989Z,75.80
2019-04-01T03:44:14.233Z,76.07
2019-04-01T03:54:19.433Z,75.99
2019-04-01T04:04:24.592Z,78.75
2019-04-01T04:14:29.934Z,79.18
2019-04-01T04:24:35.234Z,79.09
2019-04-01T04:34:40.441Z,79.51
2019-04-01T04:44:45.693Z,81.03
2019-04-01T04:54:51.029Z,79.93
2019-04-01T05:04:56.239Z,74.42
2019-04-01T05:15:01.479Z,67.61
2019-04-01T05:25:07.015Z,60.95
2019-04-01T05:35:13.438Z,57.03
2019-04-01T05:45:18.519Z,55.69
2019-04-01T05:55:23.831Z,60.09
2019-04-01T06:05:29.220Z,55.29
2019-04-01T06:15:35.119Z,55.92
2019-04-01T06:25:40.318Z,44.66
2019-04-01T06:35:46.075Z,46.07
2019-04-01T06:45:51.289Z,43.06
2019-04-01T06:55:56.565Z,38.05
2019-04-01T07:06:02.600Z,39.18
2019-04-01T07:16:15.226Z,40.64
2019-04-01T07:26:15.134Z,36.09
2019-04-01T07:36:20.599Z,31.63
2019-04-01T07:46:26.158Z,33.98
2019-04-01T07:56:31.479Z,27.67
2019-04-01T08:06:37.178Z,27.95
2019-04-01T08:16:42.779Z,30.11
2019-04-01T08:26:48.399Z,34.26
2019-04-01T08:36:53.717Z,27.10
2019-04-01T08:46:59.197Z,33.53
2019-04-01T08:57:05.863Z,35.08
2019-04-01T09:07:11.259Z,31.70
2019-04-01T09:17:16.961Z,28.95
2019-04-01T09:27:22.886Z,29.65
2019-04-01T09:37:28.689Z,28.06
2019-04-01T09:47:34.397Z,25.73
2019-04-01T09:57:39.672Z,28.10
2019-04-01T10:07:45.603Z,26.73
2019-04-01T10:17:51.299Z,24.51
2019-04-01T10:27:56.843Z,24.82
2019-04-01T10:38:02.290Z,25.26
2019-04-01T10:48:07.889Z,22.06
2019-04-01T10:58:13.361Z,19.79
2019-04-01T11:08:19.080Z,25.46
2019-04-01T11:18:24.509Z,23.64
2019-04-01T11:28:30.017Z,24.46
2019-04-01T11:38:35.342Z,24.74
2019-04-01T11:48:42.189Z,22.54
2019-04-01T11:58:47.561Z,23.87
2019-04-01T12:08:53.100Z,22.72
2019-04-01T12:18:58.521Z,24.77
2019-04-01T12:29:03.923Z,24.45
2019-04-01T12:39:09.554Z,24.56
2019-04-01T12:49:15.538Z,24.60
2019-04-01T12:59:20.839Z,26.84
2019-04-01T13:09:26.182Z,24.62
2019-04-01T13:19:32.038Z,28.31
2019-04-01T13:29:37.567Z,27.21
2019-04-01T13:39:43.200Z,28.94
2019-04-01T13:49:48.819Z,28.89
2019-04-01T13:59:54.201Z,29.57
2019-04-01T14:09:59.879Z,29.63
2019-04-01T14:20:06.700Z,30.63
2019-04-01T14:30:12.401Z,29.63
2019-04-01T14:40:18.704Z,32.65
2019-04-01T14:50:24.601Z,33.83
2019-04-01T15:00:30.174Z,32.81
2019-04-01T15:10:35.849Z,34.18
2019-04-01T15:20:41.329Z,35.24
2019-04-01T15:30:47.170Z,35.50
2019-04-01T15:40:53.298Z,36.96
2019-04-01T15:50:59.052Z,37.44
2019-04-01T16:01:06.093Z,38.32
2019-04-01T16:11:12.050Z,39.94
2019-04-01T16:21:17.810Z,39.52
2019-04-01T16:31:23.421Z,39.57
2019-04-01T16:41:29.250Z,40.58
2019-04-01T16:51:35.291Z,41.12
2019-04-01T17:01:41.770Z,41.60
2019-04-01T17:11:47.666Z,42.63
2019-04-01T17:21:53.735Z,43.41
2019-04-01T17:31:59.650Z,44.69
2019-04-01T17:42:06.180Z,46.03
2019-04-01T17:52:12.290Z,46.81
2019-04-01T18:02:29.191Z,47.68
2019-04-01T18:12:34.967Z,48.64
2019-04-01T18:22:40.855Z,48.98
2019-04-01T18:32:46.729Z,49.98
2019-04-01T18:42:53.488Z,50.98
2019-04-01T18:52:59.566Z,51.96
2019-04-01T19:03:05.731Z,52.85
2019-04-01T19:13:12.748Z,52.99
2019-04-01T19:23:19.128Z,53.69
2019-04-01T19:33:25.171Z,54.89
2019-04-01T19:43:32.337Z,54.76
2019-04-01T19:53:38.310Z,54.38
2019-04-01T20:03:44.161Z,54.43
2019-04-01T20:13:50.166Z,55.30
2019-04-01T20:23:55.935Z,56.28
2019-04-01T20:34:04.349Z,56.90
2019-04-01T20:44:09.717Z,56.52
2019-04-01T20:54:16.155Z,55.18
2019-04-01T21:04:22.086Z,54.16
2019-04-01T21:14:27.559Z,53.01
2019-04-01T21:24:33.151Z,52.81
2019-04-01T21:34:40.243Z,52.09
2019-04-01T21:44:46.958Z,51.95
2019-04-01T21:54:52.533Z,51.35
2019-04-01T22:04:57.744Z,51.86
2019-04-01T22:15:03.092Z,51.11
2019-04-01T22:25:08.984Z,51.16
2019-04-01T22:35:14.583Z,50.65
2019-04-01T22:45:20.604Z,50.19
2019-04-01T22:55:28.079Z,50.44
2019-04-01T23:05:33.554Z,50.31
2019-04-01T23:15:38.864Z,50.71
2019-04-01T23:25:44.084Z,50.26
2019-04-01T23:35:49.483Z,49.89
2019-04-01T23:45:54.752Z,49.69
2019-04-01T23:56:00.165Z,50.60
